sensor_id;sensor_type;location;lat;lon;timestamp;temperature;humidity
11824;DHT22;5969;50.780;7.726;2023-05-14T00:00:00;9.80;99.90
11824;DHT22;5969;50.780;7.726;2023-05-14T00:02:28;9.80;99.90
11824;DHT22;5969;50.780;7.726;2023-05-14T00:04:55;9.70;99.90
11824;DHT22;5969;50.780;7.726;2023-05-14T00:07:21;9.70;99.90
11824;DHT22;5969;50.780;7.726;2023-05-14T00:09:56;9.50;99.90
11824;DHT22;5969;50.780;7.726;2023-05-14T00:12:23;9.10;99.90
11824;DHT22;5969;50.780;7.726;2023-05-14T00:14:50;9.00;99.90
11824;DHT22;5969;50.780;7.726;2023-05-14T00:17:17;9.00;99.90
11824;DHT22;5969;50.780;7.726;2023-05-14T00:19:44;9.20;99.90
11824;DHT22;5969;50.780;7.726;2023-05-14T00:22:11;9.00;99.90
11824;DHT22;5969;50.780;7.726;2023-05-14T00:24:37;9.00;99.90
11824;DHT22;5969;50.780;7.726;2023-05-14T00:27:06;9.00;99.90
11824;DHT22;5969;50.780;7.726;2023-05-14T00:29:32;9.00;99.90
11824;DHT22;5969;50.780;7.726;2023-05-14T00:31:59;9.00;99.90
11824;DHT22;5969;50.780;7.726;2023-05-14T00:34:26;9.00;99.90
11824;DHT22;5969;50.780;7.726;2023-05-14T00:36:53;8.70;99.90
11824;DHT22;5969;50.780;7.726;2023-05-14T00:39:19;8.60;99.90
11824;DHT22;5969;50.780;7.726;2023-05-14T00:41:46;8.50;99.90
11824;DHT22;5969;50.780;7.726;2023-05-14T00:44:14;8.50;99.90
11824;DHT22;5969;50.780;7.726;2023-05-14T00:46:41;8.50;99.90
11824;DHT22;5969;50.780;7.726;2023-05-14T00:49:08;8.40;99.90
11824;DHT22;5969;50.780;7.726;2023-05-14T00:51:35;8.40;99.90
11824;DHT22;5969;50.780;7.726;2023-05-14T00:54:02;8.30;99.90
11824;DHT22;5969;50.780;7.726;2023-05-14T00:56:29;8.20;99.90
11824;DHT22;5969;50.780;7.726;2023-05-14T00:58:56;8.10;99.90
11824;DHT22;5969;50.780;7.726;2023-05-14T01:01:25;8.10;99.90
11824;DHT22;5969;50.780;7.726;2023-05-14T01:03:53;8.00;99.90
11824;DHT22;5969;50.780;7.726;2023-05-14T01:06:27;8.10;99.90
11824;DHT22;5969;50.780;7.726;2023-05-14T01:09:02;8.10;99.90
11824;DHT22;5969;50.780;7.726;2023-05-14T01:11:35;8.20;99.90
11824;DHT22;5969;50.780;7.726;2023-05-14T01:14:16;8.20;99.90
11824;DHT22;5969;50.780;7.726;2023-05-14T01:16:48;7.90;99.90
11824;DHT22;5969;50.780;7.726;2023-05-14T01:19:25;7.80;99.90
11824;DHT22;5969;50.780;7.726;2023-05-14T01:21:54;7.80;99.90
11824;DHT22;5969;50.780;7.726;2023-05-14T01:24:20;7.90;99.90
11824;DHT22;5969;50.780;7.726;2023-05-14T01:26:47;7.70;99.90
11824;DHT22;5969;50.780;7.726;2023-05-14T01:29:20;7.70;99.90
11824;DHT22;5969;50.780;7.726;2023-05-14T01:31:49;7.70;99.90
11824;DHT22;5969;50.780;7.726;2023-05-14T01:34:18;7.70;99.90
11824;DHT22;5969;50.780;7.726;2023-05-14T01:36:47;7.60;99.90
11824;DHT22;5969;50.780;7.726;2023-05-14T01:39:16;7.60;99.90
11824;DHT22;5969;50.780;7.726;2023-05-14T01:41:43;7.70;99.90
11824;DHT22;5969;50.780;7.726;2023-05-14T01:44:11;7.70;99.90
11824;DHT22;5969;50.780;7.726;2023-05-14T01:46:38;7.70;99.90
11824;DHT22;5969;50.780;7.726;2023-05-14T01:49:06;7.80;99.90
11824;DHT22;5969;50.780;7.726;2023-05-14T01:51:32;7.80;99.90
11824;DHT22;5969;50.780;7.726;2023-05-14T01:53:59;7.80;99.90
11824;DHT22;5969;50.780;7.726;2023-05-14T01:56:27;7.80;99.90
11824;DHT22;5969;50.780;7.726;2023-05-14T01:58:54;7.80;99.90
11824;DHT22;5969;50.780;7.726;2023-05-14T02:01:21;7.80;99.90
11824;DHT22;5969;50.780;7.726;2023-05-14T02:03:50;7.80;99.90
11824;DHT22;5969;50.780;7.726;2023-05-14T02:06:17;7.80;99.90
11824;DHT22;5969;50.780;7.726;2023-05-14T02:08:44;7.80;99.90
11824;DHT22;5969;50.780;7.726;2023-05-14T02:11:10;7.80;99.90
11824;DHT22;5969;50.780;7.726;2023-05-14T02:13:38;7.80;99.90
11824;DHT22;5969;50.780;7.726;2023-05-14T02:16:06;7.80;99.90
11824;DHT22;5969;50.780;7.726;2023-05-14T02:18:33;7.70;99.90
11824;DHT22;5969;50.780;7.726;2023-05-14T02:20:59;7.40;99.90
11824;DHT22;5969;50.780;7.726;2023-05-14T02:23:26;7.30;99.90
11824;DHT22;5969;50.780;7.726;2023-05-14T02:25:53;7.20;99.90
11824;DHT22;5969;50.780;7.726;2023-05-14T02:28:19;7.20;99.90
11824;DHT22;5969;50.780;7.726;2023-05-14T02:30:48;7.10;99.90
11824;DHT22;5969;50.780;7.726;2023-05-14T02:33:14;7.10;99.90
11824;DHT22;5969;50.780;7.726;2023-05-14T02:35:41;7.10;99.90
11824;DHT22;5969;50.780;7.726;2023-05-14T02:38:08;7.10;99.90
11824;DHT22;5969;50.780;7.726;2023-05-14T02:40:36;6.90;99.90
11824;DHT22;5969;50.780;7.726;2023-05-14T02:43:03;6.70;99.90
11824;DHT22;5969;50.780;7.726;2023-05-14T02:45:34;6.80;99.90
11824;DHT22;5969;50.780;7.726;2023-05-14T02:48:02;6.80;99.90
11824;DHT22;5969;50.780;7.726;2023-05-14T02:50:29;6.80;99.90
11824;DHT22;5969;50.780;7.726;2023-05-14T02:52:56;6.90;99.90
11824;DHT22;5969;50.780;7.726;2023-05-14T02:55:23;7.00;99.90
11824;DHT22;5969;50.780;7.726;2023-05-14T02:57:50;7.00;99.90
11824;DHT22;5969;50.780;7.726;2023-05-14T03:00:18;7.00;99.90
11824;DHT22;5969;50.780;7.726;2023-05-14T03:02:45;7.10;99.90
11824;DHT22;5969;50.780;7.726;2023-05-14T03:05:13;7.10;99.90
11824;DHT22;5969;50.780;7.726;2023-05-14T03:07:40;7.20;99.90
11824;DHT22;5969;50.780;7.726;2023-05-14T03:10:07;7.00;99.90
11824;DHT22;5969;50.780;7.726;2023-05-14T03:12:34;6.90;99.90
11824;DHT22;5969;50.780;7.726;2023-05-14T03:15:01;6.80;99.90
11824;DHT22;5969;50.780;7.726;2023-05-14T03:17:28;6.70;99.90
11824;DHT22;5969;50.780;7.726;2023-05-14T03:19:55;6.70;99.90
11824;DHT22;5969;50.780;7.726;2023-05-14T03:22:23;6.70;99.90
11824;DHT22;5969;50.780;7.726;2023-05-14T03:24:49;6.60;99.90
11824;DHT22;5969;50.780;7.726;2023-05-14T03:27:16;6.50;99.90
11824;DHT22;5969;50.780;7.726;2023-05-14T03:29:43;6.70;99.90
11824;DHT22;5969;50.780;7.726;2023-05-14T03:32:10;6.60;99.90
11824;DHT22;5969;50.780;7.726;2023-05-14T03:34:37;6.70;99.90
11824;DHT22;5969;50.780;7.726;2023-05-14T03:37:04;6.80;99.90
11824;DHT22;5969;50.780;7.726;2023-05-14T03:39:32;6.70;99.90
11824;DHT22;5969;50.780;7.726;2023-05-14T03:41:59;6.50;99.90
11824;DHT22;5969;50.780;7.726;2023-05-14T03:44:26;6.50;99.90
11824;DHT22;5969;50.780;7.726;2023-05-14T03:46:53;6.40;99.90
11824;DHT22;5969;50.780;7.726;2023-05-14T03:49:20;6.40;99.90
11824;DHT22;5969;50.780;7.726;2023-05-14T03:51:47;6.30;99.90
11824;DHT22;5969;50.780;7.726;2023-05-14T03:54:13;6.30;99.90
11824;DHT22;5969;50.780;7.726;2023-05-14T03:56:41;6.30;99.90
11824;DHT22;5969;50.780;7.726;2023-05-14T03:59:08;6.40;99.90
11824;DHT22;5969;50.780;7.726;2023-05-14T04:01:35;6.40;99.90
11824;DHT22;5969;50.780;7.726;2023-05-14T04:04:02;6.50;99.90
11824;DHT22;5969;50.780;7.726;2023-05-14T04:06:28;6.50;99.90
11824;DHT22;5969;50.780;7.726;2023-05-14T04:08:55;6.50;99.90
11824;DHT22;5969;50.780;7.726;2023-05-14T04:11:23;6.50;99.90
11824;DHT22;5969;50.780;7.726;2023-05-14T04:13:51;6.60;99.90
11824;DHT22;5969;50.780;7.726;2023-05-14T04:16:18;6.50;99.90
11824;DHT22;5969;50.780;7.726;2023-05-14T04:18:45;6.30;99.90
11824;DHT22;5969;50.780;7.726;2023-05-14T04:21:12;6.30;99.90
11824;DHT22;5969;50.780;7.726;2023-05-14T04:23:39;6.40;99.90
11824;DHT22;5969;50.780;7.726;2023-05-14T04:26:05;6.50;99.90
11824;DHT22;5969;50.780;7.726;2023-05-14T04:28:32;6.50;99.90
11824;DHT22;5969;50.780;7.726;2023-05-14T04:31:02;6.60;99.90
11824;DHT22;5969;50.780;7.726;2023-05-14T04:33:29;6.60;99.90
11824;DHT22;5969;50.780;7.726;2023-05-14T04:35:55;6.60;99.90
11824;DHT22;5969;50.780;7.726;2023-05-14T04:38:22;6.60;99.90
11824;DHT22;5969;50.780;7.726;2023-05-14T04:40:49;6.70;99.90
11824;DHT22;5969;50.780;7.726;2023-05-14T04:43:16;6.70;99.90
11824;DHT22;5969;50.780;7.726;2023-05-14T04:45:42;6.80;99.90
11824;DHT22;5969;50.780;7.726;2023-05-14T04:48:11;6.90;99.90
11824;DHT22;5969;50.780;7.726;2023-05-14T04:50:38;7.00;99.90
11824;DHT22;5969;50.780;7.726;2023-05-14T04:53:04;7.10;99.90
11824;DHT22;5969;50.780;7.726;2023-05-14T04:55:31;7.20;99.90
11824;DHT22;5969;50.780;7.726;2023-05-14T04:57:58;7.30;99.90
11824;DHT22;5969;50.780;7.726;2023-05-14T05:00:25;7.30;99.90
11824;DHT22;5969;50.780;7.726;2023-05-14T05:02:53;7.20;99.90
11824;DHT22;5969;50.780;7.726;2023-05-14T05:05:21;7.10;99.90
11824;DHT22;5969;50.780;7.726;2023-05-14T05:07:48;7.10;99.90
11824;DHT22;5969;50.780;7.726;2023-05-14T05:10:15;7.10;99.90
11824;DHT22;5969;50.780;7.726;2023-05-14T05:12:42;7.10;99.90
11824;DHT22;5969;50.780;7.726;2023-05-14T05:15:09;7.10;99.90
11824;DHT22;5969;50.780;7.726;2023-05-14T05:17:35;7.20;99.90
11824;DHT22;5969;50.780;7.726;2023-05-14T05:20:03;7.30;99.90
11824;DHT22;5969;50.780;7.726;2023-05-14T05:22:34;7.40;99.90
11824;DHT22;5969;50.780;7.726;2023-05-14T05:25:01;7.60;99.90
11824;DHT22;5969;50.780;7.726;2023-05-14T05:27:29;7.70;99.90
11824;DHT22;5969;50.780;7.726;2023-05-14T05:29:56;7.60;99.90
11824;DHT22;5969;50.780;7.726;2023-05-14T05:32:23;7.70;99.90
11824;DHT22;5969;50.780;7.726;2023-05-14T05:34:50;7.80;99.90
11824;DHT22;5969;50.780;7.726;2023-05-14T05:37:17;8.00;99.90
11824;DHT22;5969;50.780;7.726;2023-05-14T05:39:45;8.10;99.90
11824;DHT22;5969;50.780;7.726;2023-05-14T05:42:12;8.30;99.90
11824;DHT22;5969;50.780;7.726;2023-05-14T05:44:39;8.40;99.90
11824;DHT22;5969;50.780;7.726;2023-05-14T05:47:06;8.50;99.90
11824;DHT22;5969;50.780;7.726;2023-05-14T05:49:33;8.60;99.90
11824;DHT22;5969;50.780;7.726;2023-05-14T05:52:01;8.80;99.90
11824;DHT22;5969;50.780;7.726;2023-05-14T05:54:29;8.60;99.90
11824;DHT22;5969;50.780;7.726;2023-05-14T05:56:58;8.80;99.90
11824;DHT22;5969;50.780;7.726;2023-05-14T05:59:24;8.80;99.90
11824;DHT22;5969;50.780;7.726;2023-05-14T06:01:51;8.90;99.90
11824;DHT22;5969;50.780;7.726;2023-05-14T06:04:18;8.90;99.90
11824;DHT22;5969;50.780;7.726;2023-05-14T06:06:45;8.90;99.90
11824;DHT22;5969;50.780;7.726;2023-05-14T06:09:11;9.10;99.90
11824;DHT22;5969;50.780;7.726;2023-05-14T06:11:38;9.30;99.90
11824;DHT22;5969;50.780;7.726;2023-05-14T06:14:06;9.40;99.90
11824;DHT22;5969;50.780;7.726;2023-05-14T06:16:33;9.60;99.90
11824;DHT22;5969;50.780;7.726;2023-05-14T06:19:00;9.80;99.90
11824;DHT22;5969;50.780;7.726;2023-05-14T06:21:27;9.90;99.90
11824;DHT22;5969;50.780;7.726;2023-05-14T06:23:54;10.00;99.90
11824;DHT22;5969;50.780;7.726;2023-05-14T06:26:20;10.10;99.90
11824;DHT22;5969;50.780;7.726;2023-05-14T06:28:47;10.20;99.90
11824;DHT22;5969;50.780;7.726;2023-05-14T06:31:16;10.30;99.90
11824;DHT22;5969;50.780;7.726;2023-05-14T06:33:43;10.60;99.90
11824;DHT22;5969;50.780;7.726;2023-05-14T06:36:10;10.50;99.90
11824;DHT22;5969;50.780;7.726;2023-05-14T06:38:37;10.70;99.90
11824;DHT22;5969;50.780;7.726;2023-05-14T06:41:03;10.80;99.90
11824;DHT22;5969;50.780;7.726;2023-05-14T06:43:30;10.90;99.90
11824;DHT22;5969;50.780;7.726;2023-05-14T06:45:57;10.90;99.90
11824;DHT22;5969;50.780;7.726;2023-05-14T06:48:52;11.00;99.90
11824;DHT22;5969;50.780;7.726;2023-05-14T06:51:22;11.20;99.90
11824;DHT22;5969;50.780;7.726;2023-05-14T06:53:49;11.30;99.90
11824;DHT22;5969;50.780;7.726;2023-05-14T06:56:17;11.50;99.90
11824;DHT22;5969;50.780;7.726;2023-05-14T06:58:43;11.60;99.90
11824;DHT22;5969;50.780;7.726;2023-05-14T07:01:13;11.80;99.90
11824;DHT22;5969;50.780;7.726;2023-05-14T07:03:42;11.90;99.90
11824;DHT22;5969;50.780;7.726;2023-05-14T07:06:08;12.00;99.90
11824;DHT22;5969;50.780;7.726;2023-05-14T07:08:35;12.20;99.90
11824;DHT22;5969;50.780;7.726;2023-05-14T07:11:02;12.30;99.90
11824;DHT22;5969;50.780;7.726;2023-05-14T07:13:29;12.40;99.90
11824;DHT22;5969;50.780;7.726;2023-05-14T07:15:55;12.50;99.90
11824;DHT22;5969;50.780;7.726;2023-05-14T07:18:22;12.70;99.90
11824;DHT22;5969;50.780;7.726;2023-05-14T07:20:53;12.80;99.90
11824;DHT22;5969;50.780;7.726;2023-05-14T07:23:20;13.00;99.90
11824;DHT22;5969;50.780;7.726;2023-05-14T07:25:46;13.00;99.90
11824;DHT22;5969;50.780;7.726;2023-05-14T07:28:13;13.10;99.90
11824;DHT22;5969;50.780;7.726;2023-05-14T07:30:40;13.20;99.90
11824;DHT22;5969;50.780;7.726;2023-05-14T07:33:07;13.40;99.90
11824;DHT22;5969;50.780;7.726;2023-05-14T07:35:33;13.50;99.90
11824;DHT22;5969;50.780;7.726;2023-05-14T07:38:03;13.60;99.90
11824;DHT22;5969;50.780;7.726;2023-05-14T07:40:30;13.80;99.90
11824;DHT22;5969;50.780;7.726;2023-05-14T07:42:57;13.90;99.90
11824;DHT22;5969;50.780;7.726;2023-05-14T07:45:23;14.00;99.90
11824;DHT22;5969;50.780;7.726;2023-05-14T07:47:50;14.10;99.90
11824;DHT22;5969;50.780;7.726;2023-05-14T07:50:17;14.30;99.90
11824;DHT22;5969;50.780;7.726;2023-05-14T07:52:45;14.40;99.90
11824;DHT22;5969;50.780;7.726;2023-05-14T07:55:13;14.50;99.90
11824;DHT22;5969;50.780;7.726;2023-05-14T07:57:42;14.50;99.90
11824;DHT22;5969;50.780;7.726;2023-05-14T08:00:13;14.60;99.90
11824;DHT22;5969;50.780;7.726;2023-05-14T08:02:49;14.70;99.90
11824;DHT22;5969;50.780;7.726;2023-05-14T08:05:22;14.70;99.90
11824;DHT22;5969;50.780;7.726;2023-05-14T08:07:49;14.80;99.90
11824;DHT22;5969;50.780;7.726;2023-05-14T08:10:17;14.90;99.90
11824;DHT22;5969;50.780;7.726;2023-05-14T08:12:44;15.00;99.90
11824;DHT22;5969;50.780;7.726;2023-05-14T08:15:11;15.20;99.90
11824;DHT22;5969;50.780;7.726;2023-05-14T08:17:38;15.30;99.90
11824;DHT22;5969;50.780;7.726;2023-05-14T08:20:07;15.50;99.90
11824;DHT22;5969;50.780;7.726;2023-05-14T08:22:34;15.60;99.90
11824;DHT22;5969;50.780;7.726;2023-05-14T08:25:04;15.70;99.90
11824;DHT22;5969;50.780;7.726;2023-05-14T08:27:32;15.80;99.90
11824;DHT22;5969;50.780;7.726;2023-05-14T08:29:59;15.90;99.90
11824;DHT22;5969;50.780;7.726;2023-05-14T08:32:26;16.00;99.90
11824;DHT22;5969;50.780;7.726;2023-05-14T08:34:53;16.30;99.90
11824;DHT22;5969;50.780;7.726;2023-05-14T08:37:20;16.20;99.90
11824;DHT22;5969;50.780;7.726;2023-05-14T08:39:46;16.20;99.90
11824;DHT22;5969;50.780;7.726;2023-05-14T08:42:14;16.30;99.90
11824;DHT22;5969;50.780;7.726;2023-05-14T08:44:47;16.30;99.90
11824;DHT22;5969;50.780;7.726;2023-05-14T08:47:17;16.50;99.90
11824;DHT22;5969;50.780;7.726;2023-05-14T08:49:46;16.50;99.90
11824;DHT22;5969;50.780;7.726;2023-05-14T08:52:15;16.50;99.90
11824;DHT22;5969;50.780;7.726;2023-05-14T08:54:44;16.50;99.90
11824;DHT22;5969;50.780;7.726;2023-05-14T08:57:12;16.70;99.90
11824;DHT22;5969;50.780;7.726;2023-05-14T08:59:40;16.80;99.90
11824;DHT22;5969;50.780;7.726;2023-05-14T09:02:11;16.90;99.90
11824;DHT22;5969;50.780;7.726;2023-05-14T09:04:41;17.00;99.90
11824;DHT22;5969;50.780;7.726;2023-05-14T09:07:08;17.10;99.90
11824;DHT22;5969;50.780;7.726;2023-05-14T09:09:35;17.20;99.90
11824;DHT22;5969;50.780;7.726;2023-05-14T09:12:04;17.20;99.90
11824;DHT22;5969;50.780;7.726;2023-05-14T09:14:32;17.20;99.90
11824;DHT22;5969;50.780;7.726;2023-05-14T09:17:20;17.20;99.90
11824;DHT22;5969;50.780;7.726;2023-05-14T09:19:47;17.40;99.90
11824;DHT22;5969;50.780;7.726;2023-05-14T09:22:52;17.40;99.90
11824;DHT22;5969;50.780;7.726;2023-05-14T09:25:33;17.50;99.90
11824;DHT22;5969;50.780;7.726;2023-05-14T09:28:16;17.50;99.90
11824;DHT22;5969;50.780;7.726;2023-05-14T09:30:46;17.70;99.90
11824;DHT22;5969;50.780;7.726;2023-05-14T09:33:25;17.80;99.90
11824;DHT22;5969;50.780;7.726;2023-05-14T09:35:55;17.90;99.90
11824;DHT22;5969;50.780;7.726;2023-05-14T09:38:26;18.10;99.90
11824;DHT22;5969;50.780;7.726;2023-05-14T09:40:54;18.30;99.90
11824;DHT22;5969;50.780;7.726;2023-05-14T09:43:21;18.50;99.90
11824;DHT22;5969;50.780;7.726;2023-05-14T09:45:48;18.80;99.90
11824;DHT22;5969;50.780;7.726;2023-05-14T09:48:15;18.80;99.90
11824;DHT22;5969;50.780;7.726;2023-05-14T09:50:42;19.00;99.90
11824;DHT22;5969;50.780;7.726;2023-05-14T09:53:10;19.10;99.90
11824;DHT22;5969;50.780;7.726;2023-05-14T09:55:37;19.10;99.90
11824;DHT22;5969;50.780;7.726;2023-05-14T09:58:05;18.90;99.90
11824;DHT22;5969;50.780;7.726;2023-05-14T10:00:33;19.00;99.90
11824;DHT22;5969;50.780;7.726;2023-05-14T10:03:04;19.00;99.90
11824;DHT22;5969;50.780;7.726;2023-05-14T10:05:32;19.30;99.90
11824;DHT22;5969;50.780;7.726;2023-05-14T10:08:04;19.60;99.90
11824;DHT22;5969;50.780;7.726;2023-05-14T10:10:34;19.80;99.90
11824;DHT22;5969;50.780;7.726;2023-05-14T10:13:06;19.90;99.90
11824;DHT22;5969;50.780;7.726;2023-05-14T10:15:38;20.10;99.90
11824;DHT22;5969;50.780;7.726;2023-05-14T10:18:16;20.40;99.90
11824;DHT22;5969;50.780;7.726;2023-05-14T10:20:47;20.50;99.90
11824;DHT22;5969;50.780;7.726;2023-05-14T10:23:14;20.50;99.90
11824;DHT22;5969;50.780;7.726;2023-05-14T10:25:41;20.70;99.90
11824;DHT22;5969;50.780;7.726;2023-05-14T10:28:10;20.20;98.70
11824;DHT22;5969;50.780;7.726;2023-05-14T10:30:43;20.30;99.90
11824;DHT22;5969;50.780;7.726;2023-05-14T10:33:11;20.60;99.90
11824;DHT22;5969;50.780;7.726;2023-05-14T10:35:57;20.60;99.00
11824;DHT22;5969;50.780;7.726;2023-05-14T10:38:25;20.50;98.10
11824;DHT22;5969;50.780;7.726;2023-05-14T10:40:58;20.40;98.10
11824;DHT22;5969;50.780;7.726;2023-05-14T10:43:28;20.50;99.30
11824;DHT22;5969;50.780;7.726;2023-05-14T10:45:56;21.00;99.40
11824;DHT22;5969;50.780;7.726;2023-05-14T10:48:24;21.10;98.60
11824;DHT22;5969;50.780;7.726;2023-05-14T10:50:51;20.80;98.20
11824;DHT22;5969;50.780;7.726;2023-05-14T10:53:19;21.00;98.30
11824;DHT22;5969;50.780;7.726;2023-05-14T10:55:46;21.30;98.70
11824;DHT22;5969;50.780;7.726;2023-05-14T10:58:14;21.40;98.30
11824;DHT22;5969;50.780;7.726;2023-05-14T11:00:46;21.80;97.40
11824;DHT22;5969;50.780;7.726;2023-05-14T11:03:14;22.10;97.50
11824;DHT22;5969;50.780;7.726;2023-05-14T11:05:41;22.10;97.10
11824;DHT22;5969;50.780;7.726;2023-05-14T11:08:10;22.00;95.80
11824;DHT22;5969;50.780;7.726;2023-05-14T11:10:38;21.90;96.10
11824;DHT22;5969;50.780;7.726;2023-05-14T11:13:05;21.90;96.10
11824;DHT22;5969;50.780;7.726;2023-05-14T11:15:32;21.50;97.00
11824;DHT22;5969;50.780;7.726;2023-05-14T11:18:00;21.00;96.80
11824;DHT22;5969;50.780;7.726;2023-05-14T11:20:27;20.90;97.00
11824;DHT22;5969;50.780;7.726;2023-05-14T11:22:54;20.60;97.80
11824;DHT22;5969;50.780;7.726;2023-05-14T11:25:21;20.50;97.70
11824;DHT22;5969;50.780;7.726;2023-05-14T11:27:50;20.80;97.30
11824;DHT22;5969;50.780;7.726;2023-05-14T11:30:20;21.10;97.20
11824;DHT22;5969;50.780;7.726;2023-05-14T11:32:48;21.20;96.70
11824;DHT22;5969;50.780;7.726;2023-05-14T11:35:17;21.20;97.80
11824;DHT22;5969;50.780;7.726;2023-05-14T11:37:49;21.10;96.80
11824;DHT22;5969;50.780;7.726;2023-05-14T11:40:17;21.00;97.60
11824;DHT22;5969;50.780;7.726;2023-05-14T11:42:44;21.10;97.20
11824;DHT22;5969;50.780;7.726;2023-05-14T11:45:11;21.30;97.20
11824;DHT22;5969;50.780;7.726;2023-05-14T11:47:39;21.20;97.50
11824;DHT22;5969;50.780;7.726;2023-05-14T11:50:07;21.10;96.50
11824;DHT22;5969;50.780;7.726;2023-05-14T11:52:38;21.10;96.90
11824;DHT22;5969;50.780;7.726;2023-05-14T11:55:09;21.30;97.30
11824;DHT22;5969;50.780;7.726;2023-05-14T11:57:36;21.20;96.90
11824;DHT22;5969;50.780;7.726;2023-05-14T12:00:08;21.00;97.10
11824;DHT22;5969;50.780;7.726;2023-05-14T12:02:37;21.10;96.30
11824;DHT22;5969;50.780;7.726;2023-05-14T12:05:06;21.50;96.70
11824;DHT22;5969;50.780;7.726;2023-05-14T12:07:36;21.60;96.00
11824;DHT22;5969;50.780;7.726;2023-05-14T12:10:05;21.60;96.20
11824;DHT22;5969;50.780;7.726;2023-05-14T12:12:34;21.90;95.90
11824;DHT22;5969;50.780;7.726;2023-05-14T12:15:01;22.40;96.40
11824;DHT22;5969;50.780;7.726;2023-05-14T12:17:28;22.70;95.60
11824;DHT22;5969;50.780;7.726;2023-05-14T12:19:56;22.80;94.80
11824;DHT22;5969;50.780;7.726;2023-05-14T12:22:23;22.70;94.90
11824;DHT22;5969;50.780;7.726;2023-05-14T12:24:56;22.90;94.90
11824;DHT22;5969;50.780;7.726;2023-05-14T12:27:23;23.20;94.90
11824;DHT22;5969;50.780;7.726;2023-05-14T12:29:57;23.70;94.80
11824;DHT22;5969;50.780;7.726;2023-05-14T12:32:24;24.20;95.10
11824;DHT22;5969;50.780;7.726;2023-05-14T12:34:51;24.90;94.30
11824;DHT22;5969;50.780;7.726;2023-05-14T12:37:18;25.00;92.80
11824;DHT22;5969;50.780;7.726;2023-05-14T12:39:45;24.90;93.00
11824;DHT22;5969;50.780;7.726;2023-05-14T12:42:13;24.80;92.40
11824;DHT22;5969;50.780;7.726;2023-05-14T12:44:40;25.00;93.00
11824;DHT22;5969;50.780;7.726;2023-05-14T12:47:07;24.80;92.20
11824;DHT22;5969;50.780;7.726;2023-05-14T12:49:34;24.50;92.40
11824;DHT22;5969;50.780;7.726;2023-05-14T12:52:01;23.80;92.30
11824;DHT22;5969;50.780;7.726;2023-05-14T12:54:27;23.50;92.10
11824;DHT22;5969;50.780;7.726;2023-05-14T12:56:56;23.00;92.20
11824;DHT22;5969;50.780;7.726;2023-05-14T12:59:24;22.60;93.40
11824;DHT22;5969;50.780;7.726;2023-05-14T13:01:51;22.30;92.10
11824;DHT22;5969;50.780;7.726;2023-05-14T13:04:17;21.70;92.60
11824;DHT22;5969;50.780;7.726;2023-05-14T13:06:44;21.60;93.60
11824;DHT22;5969;50.780;7.726;2023-05-14T13:09:14;21.30;93.60
11824;DHT22;5969;50.780;7.726;2023-05-14T13:11:43;21.10;93.90
11824;DHT22;5969;50.780;7.726;2023-05-14T13:14:10;21.00;94.00
11824;DHT22;5969;50.780;7.726;2023-05-14T13:16:38;21.00;93.60
11824;DHT22;5969;50.780;7.726;2023-05-14T13:19:05;20.70;93.90
11824;DHT22;5969;50.780;7.726;2023-05-14T13:21:34;20.50;96.20
11824;DHT22;5969;50.780;7.726;2023-05-14T13:24:01;20.50;95.60
11824;DHT22;5969;50.780;7.726;2023-05-14T13:26:38;20.00;94.20
11824;DHT22;5969;50.780;7.726;2023-05-14T13:29:05;19.70;95.20
11824;DHT22;5969;50.780;7.726;2023-05-14T13:31:32;19.80;96.60
11824;DHT22;5969;50.780;7.726;2023-05-14T13:34:00;19.90;96.90
11824;DHT22;5969;50.780;7.726;2023-05-14T13:36:27;20.10;97.30
11824;DHT22;5969;50.780;7.726;2023-05-14T13:38:56;20.20;97.30
11824;DHT22;5969;50.780;7.726;2023-05-14T13:41:24;20.40;97.00
11824;DHT22;5969;50.780;7.726;2023-05-14T13:43:51;20.50;95.50
11824;DHT22;5969;50.780;7.726;2023-05-14T13:46:17;20.70;97.40
11824;DHT22;5969;50.780;7.726;2023-05-14T13:48:44;21.10;96.50
11824;DHT22;5969;50.780;7.726;2023-05-14T13:51:12;21.80;97.70
11824;DHT22;5969;50.780;7.726;2023-05-14T13:56:06;26.50;94.80
11824;DHT22;5969;50.780;7.726;2023-05-14T13:58:33;28.30;93.30
11824;DHT22;5969;50.780;7.726;2023-05-14T14:01:00;29.60;92.10
11824;DHT22;5969;50.780;7.726;2023-05-14T14:03:27;30.40;90.50
11824;DHT22;5969;50.780;7.726;2023-05-14T14:05:53;30.90;83.80
11824;DHT22;5969;50.780;7.726;2023-05-14T14:08:21;28.80;86.60
11824;DHT22;5969;50.780;7.726;2023-05-14T14:10:48;27.90;88.70
11824;DHT22;5969;50.780;7.726;2023-05-14T14:13:15;26.50;86.00
11824;DHT22;5969;50.780;7.726;2023-05-14T14:15:42;25.40;89.80
11824;DHT22;5969;50.780;7.726;2023-05-14T14:18:09;25.40;87.10
11824;DHT22;5969;50.780;7.726;2023-05-14T14:20:35;26.50;87.30
11824;DHT22;5969;50.780;7.726;2023-05-14T14:23:02;25.20;87.60
11824;DHT22;5969;50.780;7.726;2023-05-14T14:25:30;24.70;90.10
11824;DHT22;5969;50.780;7.726;2023-05-14T14:27:57;23.40;89.40
11824;DHT22;5969;50.780;7.726;2023-05-14T14:30:24;23.90;89.60
11824;DHT22;5969;50.780;7.726;2023-05-14T14:32:51;25.80;85.80
11824;DHT22;5969;50.780;7.726;2023-05-14T14:35:18;27.80;83.90
11824;DHT22;5969;50.780;7.726;2023-05-14T14:37:45;29.40;83.70
11824;DHT22;5969;50.780;7.726;2023-05-14T14:40:15;31.20;82.20
11824;DHT22;5969;50.780;7.726;2023-05-14T14:42:44;31.30;82.90
11824;DHT22;5969;50.780;7.726;2023-05-14T14:45:11;31.40;81.80
11824;DHT22;5969;50.780;7.726;2023-05-14T14:47:41;32.10;80.80
11824;DHT22;5969;50.780;7.726;2023-05-14T14:50:08;30.90;78.90
11824;DHT22;5969;50.780;7.726;2023-05-14T14:52:35;28.70;83.00
11824;DHT22;5969;50.780;7.726;2023-05-14T14:55:03;27.40;82.70
11824;DHT22;5969;50.780;7.726;2023-05-14T14:57:30;26.30;84.70
11824;DHT22;5969;50.780;7.726;2023-05-14T14:59:58;25.40;86.30
11824;DHT22;5969;50.780;7.726;2023-05-14T15:02:24;24.80;87.10
11824;DHT22;5969;50.780;7.726;2023-05-14T15:04:52;24.00;89.90
11824;DHT22;5969;50.780;7.726;2023-05-14T15:07:19;23.40;90.10
11824;DHT22;5969;50.780;7.726;2023-05-14T15:09:47;23.20;88.90
11824;DHT22;5969;50.780;7.726;2023-05-14T15:12:14;22.90;90.20
11824;DHT22;5969;50.780;7.726;2023-05-14T15:14:41;22.80;91.00
11824;DHT22;5969;50.780;7.726;2023-05-14T15:17:09;22.70;90.90
11824;DHT22;5969;50.780;7.726;2023-05-14T15:19:37;22.90;89.60
11824;DHT22;5969;50.780;7.726;2023-05-14T15:22:04;22.90;90.90
11824;DHT22;5969;50.780;7.726;2023-05-14T15:24:31;23.20;90.50
11824;DHT22;5969;50.780;7.726;2023-05-14T15:26:59;23.30;90.60
11824;DHT22;5969;50.780;7.726;2023-05-14T15:29:26;23.30;90.60
11824;DHT22;5969;50.780;7.726;2023-05-14T15:31:53;23.40;89.90
11824;DHT22;5969;50.780;7.726;2023-05-14T15:34:21;23.00;89.80
11824;DHT22;5969;50.780;7.726;2023-05-14T15:36:48;22.90;89.30
11824;DHT22;5969;50.780;7.726;2023-05-14T15:39:15;22.80;88.70
11824;DHT22;5969;50.780;7.726;2023-05-14T15:41:41;22.80;90.10
11824;DHT22;5969;50.780;7.726;2023-05-14T15:44:08;22.60;90.40
11824;DHT22;5969;50.780;7.726;2023-05-14T15:46:35;22.40;90.20
11824;DHT22;5969;50.780;7.726;2023-05-14T15:49:03;22.30;90.60
11824;DHT22;5969;50.780;7.726;2023-05-14T15:51:34;22.40;90.40
11824;DHT22;5969;50.780;7.726;2023-05-14T15:54:03;22.50;90.90
11824;DHT22;5969;50.780;7.726;2023-05-14T15:56:30;22.70;90.90
11824;DHT22;5969;50.780;7.726;2023-05-14T15:58:58;23.00;90.40